Depesze METAR lotnisk w Polsce

METAR – format kodowanego raportu o pogodzie używany w meteorologii lotniczej i prognozie pogody. METAR jest akronimem od ang. Meteorological Aerodrome Report. Typowy METAR zawiera informację o temperaturze, ciśnieniu, temperaturze punktu rosy, sile i kierunku wiatru, opadzie, pokrywie chmur, wysokości podstawy chmur, widzialności, lecz może zawierać też inne informacje (np. stan dróg startowych).

Warszawa-Okęcie (EPWA)

METAR = EPWA 300800Z 26012KT 230V290 CAVOK 20/12 Q1013 NOSIG

STACJA......... EPWA - Warszawa-Okęcie (WAW)
POMIAR......... Fri Sep 30, 10:00 CEST
WIATR.......... zachodni (W) z prędkością 22 km/h
WIDZIALNOŚĆ.... powyżej 10 kilometrów
CHMURY......... bezchmurne niebo
TEMPERATURA.... 20°C
T.PUNKTU ROSY.. 12°C
WILGOTNOŚĆ..... 60%
CIŚNIENIE...... 1013 hPa
PROGNOZA....... bez nagłych zmian w ciągu 2h

Sprawdź też: Prognoza pogody Warszawa

Warszawa-Modlin (EPMO)

METAR = EPMO 300730Z 27011KT CAVOK 18/11 Q1012 =

STACJA......... EPMO - Warszawa-Modlin (WMI)
POMIAR......... Fri Sep 30, 09:30 CEST
WIATR.......... zachodni (W) z prędkością 20 km/h
WIDZIALNOŚĆ.... powyżej 10 kilometrów
CHMURY......... bezchmurne niebo
TEMPERATURA.... 18°C
T.PUNKTU ROSY.. 11°C
WILGOTNOŚĆ..... 64%
CIŚNIENIE...... 1012 hPa

Sprawdź też: Prognoza pogody Nowy Dwór Mazowiecki

Kraków-Balice (EPKK)

METAR = EPKK 300800Z 24003KT 160V290 CAVOK 20/12 Q1016

STACJA......... EPKK - Kraków-Balice (KRK)
POMIAR......... Fri Sep 30, 10:00 CEST
WIATR.......... zachodni południowo-zachodni (WSW) z prędkością 6 km/h
WIDZIALNOŚĆ.... powyżej 10 kilometrów
CHMURY......... bezchmurne niebo
TEMPERATURA.... 20°C
T.PUNKTU ROSY.. 12°C
WILGOTNOŚĆ..... 60%
CIŚNIENIE...... 1016 hPa

Sprawdź też: Prognoza pogody Kraków

Łódź-Lublinek (EPLL)

METAR = EPLL 300800Z 25014KT CAVOK 19/12 Q1014

STACJA......... EPLL - Łódź-Lublinek (LCJ)
POMIAR......... Fri Sep 30, 10:00 CEST
WIATR.......... zachodni południowo-zachodni (WSW) z prędkością 26 km/h
WIDZIALNOŚĆ.... powyżej 10 kilometrów
CHMURY......... bezchmurne niebo
TEMPERATURA.... 19°C
T.PUNKTU ROSY.. 12°C
WILGOTNOŚĆ..... 64%
CIŚNIENIE...... 1014 hPa

Sprawdź też: Prognoza pogody Łódź

Wrocław-Strachowice (EPWR)

METAR = EPWR 300800Z 23006KT CAVOK 20/12 Q1015

STACJA......... EPWR - Wrocław-Strachowice (WRO)
POMIAR......... Fri Sep 30, 10:00 CEST
WIATR.......... południowo-zachodni (SW) z prędkością 11 km/h
WIDZIALNOŚĆ.... powyżej 10 kilometrów
CHMURY......... bezchmurne niebo
TEMPERATURA.... 20°C
T.PUNKTU ROSY.. 12°C
WILGOTNOŚĆ..... 60%
CIŚNIENIE...... 1015 hPa

Sprawdź też: Prognoza pogody Wrocław

Katowice-Pyrzowice (EPKT)

METAR = EPKT 300800Z 23009KT CAVOK 18/12 Q1016

STACJA......... EPKT - Katowice-Pyrzowice (KTW)
POMIAR......... Fri Sep 30, 10:00 CEST
WIATR.......... południowo-zachodni (SW) z prędkością 17 km/h
WIDZIALNOŚĆ.... powyżej 10 kilometrów
CHMURY......... bezchmurne niebo
TEMPERATURA.... 18°C
T.PUNKTU ROSY.. 12°C
WILGOTNOŚĆ..... 68%
CIŚNIENIE...... 1016 hPa

Sprawdź też: Prognoza pogody Katowice

Gdańsk (EPGD)

METAR = EPGD 300800Z 25012KT 9999 FEW022 14/10 Q1009

STACJA......... EPGD - Gdańsk im. Lecha Wałęsy (GDN)
POMIAR......... Fri Sep 30, 10:00 CEST
WIATR.......... zachodni południowo-zachodni (WSW) z prędkością 22 km/h
WIDZIALNOŚĆ.... powyżej 10 kilometrów
CHMURY......... zachmurzenie niewielkie (1/8-2/8)
TEMPERATURA.... 14°C
T.PUNKTU ROSY.. 10°C
WILGOTNOŚĆ..... 77%
CIŚNIENIE...... 1009 hPa

Sprawdź też: Prognoza pogody Gdańsk

Poznań-Ławica (EPPO)

METAR = EPPO 300800Z 25008KT 9999 BKN040 17/10 Q1014

STACJA......... EPPO - Poznań-Ławica (POZ)
POMIAR......... Fri Sep 30, 10:00 CEST
WIATR.......... zachodni południowo-zachodni (WSW) z prędkością 15 km/h
WIDZIALNOŚĆ.... powyżej 10 kilometrów
CHMURY......... zachmurzenie średnie (5/8-7/8)
TEMPERATURA.... 17°C
T.PUNKTU ROSY.. 10°C
WILGOTNOŚĆ..... 64%
CIŚNIENIE...... 1014 hPa

Sprawdź też: Prognoza pogody Poznań

Rzeszów-Jasionka (EPRZ)

METAR = EPRZ 300800Z 20019KT CAVOK 19/11 Q1016

STACJA......... EPRZ - Rzeszów-Jasionka (RZE)
POMIAR......... Fri Sep 30, 10:00 CEST
WIATR.......... południowo południowo-zachodni  (SSW) z prędkością 35 km/h
WIDZIALNOŚĆ.... powyżej 10 kilometrów
CHMURY......... bezchmurne niebo
TEMPERATURA.... 19°C
T.PUNKTU ROSY.. 11°C
WILGOTNOŚĆ..... 60%
CIŚNIENIE...... 1016 hPa

Sprawdź też: Prognoza pogody Rzeszów

Szczecin-Goleniów (EPSC)

METAR = EPSC 300800Z 24008KT 210V270 CAVOK 15/11 Q1012

STACJA......... EPSC - Szczecin-Goleniów (SZZ)
POMIAR......... Fri Sep 30, 10:00 CEST
WIATR.......... zachodni południowo-zachodni (WSW) z prędkością 15 km/h
WIDZIALNOŚĆ.... powyżej 10 kilometrów
CHMURY......... bezchmurne niebo
TEMPERATURA.... 15°C
T.PUNKTU ROSY.. 11°C
WILGOTNOŚĆ..... 77%
CIŚNIENIE...... 1012 hPa

Sprawdź też: Prognoza pogody Szczecin

Lublin-Świdnik (EPLB)

METAR = EPLB 300730Z 24011KT CAVOK 18/12 Q1015 =

STACJA......... EPLB - Lublin-Świdnik (LUZ)
POMIAR......... Fri Sep 30, 09:30 CEST
WIATR.......... zachodni południowo-zachodni (WSW) z prędkością 20 km/h
WIDZIALNOŚĆ.... powyżej 10 kilometrów
CHMURY......... bezchmurne niebo
TEMPERATURA.... 18°C
T.PUNKTU ROSY.. 12°C
WILGOTNOŚĆ..... 68%
CIŚNIENIE...... 1015 hPa

Sprawdź też: Prognoza pogody Lublin

Bydgoszcz-Szwederowo (EPBY)

METAR = EPBY 300730Z 24010KT 210V270 CAVOK 17/11 Q1012 =

STACJA......... EPBY - Bydgoszcz-Szwederowo (BZG)
POMIAR......... Fri Sep 30, 09:30 CEST
WIATR.......... zachodni południowo-zachodni (WSW) z prędkością 19 km/h
WIDZIALNOŚĆ.... powyżej 10 kilometrów
CHMURY......... bezchmurne niebo
TEMPERATURA.... 17°C
T.PUNKTU ROSY.. 11°C
WILGOTNOŚĆ..... 68%
CIŚNIENIE...... 1012 hPa

Sprawdź też: Prognoza pogody Bydgoszcz

Zielona Góra-Babimost (EPZG)

METAR = EPZG 300730Z 21007KT 9999 OVC039 16/11 Q1014 =

STACJA......... EPZG - Zielona Góra-Babimost (IEG)
POMIAR......... Fri Sep 30, 09:30 CEST
WIATR.......... południowo południowo-zachodni  (SSW) z prędkością 13 km/h
WIDZIALNOŚĆ.... powyżej 10 kilometrów
CHMURY......... zachmurzenie całkowite (8/8)
TEMPERATURA.... 16°C
T.PUNKTU ROSY.. 11°C
WILGOTNOŚĆ..... 72%
CIŚNIENIE...... 1014 hPa

Sprawdź też: Prognoza pogody Zielona Góra

Szymany Olsztyn-Mazury (EPSY)

METAR = EPSY 300730Z 24009KT 210V280 9999 FEW040 17/11 Q1010=

STACJA......... EPSY - Olsztyn-Mazury (SZY)
POMIAR......... Fri Sep 30, 09:30 CEST
WIATR.......... zachodni południowo-zachodni (WSW) z prędkością 17 km/h
WIDZIALNOŚĆ.... powyżej 10 kilometrów
CHMURY......... zachmurzenie niewielkie (1/8-2/8)
TEMPERATURA.... 17°C
T.PUNKTU ROSY.. 11°C
WILGOTNOŚĆ..... 68%
CIŚNIENIE...... 1010 hPa

Sprawdź też: Prognoza pogody Olsztyn